sensor_id;sensor_type;location;lat;lon;timestamp;pressure;altitude;pressure_sealevel;temperature;humidity
50852;BME280;43953;45.508;-122.806;2023-02-13T00:00:07;101310.00;;;11.26;54.86
50852;BME280;43953;45.508;-122.806;2023-02-13T00:00:39;101314.56;;;11.26;54.71
50852;BME280;43953;45.508;-122.806;2023-02-13T00:01:11;101319.13;;;11.25;54.48
50852;BME280;43953;45.508;-122.806;2023-02-13T00:01:43;101317.47;;;11.24;54.20
50852;BME280;43953;45.508;-122.806;2023-02-13T00:02:15;101319.53;;;11.22;54.52
50852;BME280;43953;45.508;-122.806;2023-02-13T00:02:47;101326.78;;;11.22;54.60
50852;BME280;43953;45.508;-122.806;2023-02-13T00:03:18;101325.56;;;11.24;54.26
50852;BME280;43953;45.508;-122.806;2023-02-13T00:03:50;101320.78;;;11.26;54.56
50852;BME280;43953;45.508;-122.806;2023-02-13T00:04:22;101326.00;;;11.28;54.30
50852;BME280;43953;45.508;-122.806;2023-02-13T00:04:53;101324.13;;;11.28;54.35
50852;BME280;43953;45.508;-122.806;2023-02-13T00:05:25;101318.31;;;11.31;54.57
50852;BME280;43953;45.508;-122.806;2023-02-13T00:05:57;101327.06;;;11.33;54.28
50852;BME280;43953;45.508;-122.806;2023-02-13T00:06:29;101325.84;;;11.36;54.18
50852;BME280;43953;45.508;-122.806;2023-02-13T00:07:00;101325.44;;;11.39;54.36
50852;BME280;43953;45.508;-122.806;2023-02-13T00:07:32;101329.56;;;11.42;54.49
50852;BME280;43953;45.508;-122.806;2023-02-13T00:08:04;101328.34;;;11.44;54.46
50852;BME280;43953;45.508;-122.806;2023-02-13T00:08:36;101325.25;;;11.47;53.99
50852;BME280;43953;45.508;-122.806;2023-02-13T00:09:07;101327.75;;;11.49;53.92
50852;BME280;43953;45.508;-122.806;2023-02-13T00:09:41;101324.66;;;11.52;53.88
50852;BME280;43953;45.508;-122.806;2023-02-13T00:10:13;101320.91;;;11.53;53.85
50852;BME280;43953;45.508;-122.806;2023-02-13T00:10:46;101323.44;;;11.54;54.04
50852;BME280;43953;45.508;-122.806;2023-02-13T00:11:18;101323.03;;;11.57;53.96
50852;BME280;43953;45.508;-122.806;2023-02-13T00:11:50;101323.84;;;11.58;53.93
50852;BME280;43953;45.508;-122.806;2023-02-13T00:12:22;101325.50;;;11.59;54.13
50852;BME280;43953;45.508;-122.806;2023-02-13T00:12:54;101318.47;;;11.58;54.15
50852;BME280;43953;45.508;-122.806;2023-02-13T00:13:25;101318.47;;;11.58;53.79
50852;BME280;43953;45.508;-122.806;2023-02-13T00:13:57;101323.84;;;11.58;54.05
50852;BME280;43953;45.508;-122.806;2023-02-13T00:14:29;101320.50;;;11.56;53.98
50852;BME280;43953;45.508;-122.806;2023-02-13T00:15:01;101321.56;;;11.55;54.03
50852;BME280;43953;45.508;-122.806;2023-02-13T00:15:33;101328.00;;;11.54;53.71
50852;BME280;43953;45.508;-122.806;2023-02-13T00:16:05;101318.44;;;11.51;54.04
50852;BME280;43953;45.508;-122.806;2023-02-13T00:16:36;101320.09;;;11.52;53.64
50852;BME280;43953;45.508;-122.806;2023-02-13T00:17:08;101319.44;;;11.50;54.19
50852;BME280;43953;45.508;-122.806;2023-02-13T00:17:40;101323.84;;;11.51;53.75
50852;BME280;43953;45.508;-122.806;2023-02-13T00:18:11;101309.53;;;11.51;53.92
50852;BME280;43953;45.508;-122.806;2023-02-13T00:18:43;101312.22;;;11.51;53.55
50852;BME280;43953;45.508;-122.806;2023-02-13T00:19:15;101307.84;;;11.50;53.92
50852;BME280;43953;45.508;-122.806;2023-02-13T00:19:47;101312.41;;;11.49;54.05
50852;BME280;43953;45.508;-122.806;2023-02-13T00:20:19;101307.22;;;11.48;54.21
50852;BME280;43953;45.508;-122.806;2023-02-13T00:21:02;101307.41;;;11.46;53.75
50852;BME280;43953;45.508;-122.806;2023-02-13T00:21:34;101305.53;;;11.47;53.97
50852;BME280;43953;45.508;-122.806;2023-02-13T00:22:07;101304.53;;;11.48;53.72
50852;BME280;43953;45.508;-122.806;2023-02-13T00:22:40;101307.22;;;11.48;53.89
50852;BME280;43953;45.508;-122.806;2023-02-13T00:23:11;101301.84;;;11.48;53.60
50852;BME280;43953;45.508;-122.806;2023-02-13T00:23:43;101297.25;;;11.48;53.78
50852;BME280;43953;45.508;-122.806;2023-02-13T00:24:15;101304.53;;;11.48;53.76
50852;BME280;43953;45.508;-122.806;2023-02-13T00:24:47;101300.16;;;11.47;54.00
50852;BME280;43953;45.508;-122.806;2023-02-13T00:25:18;101297.25;;;11.48;54.09
50852;BME280;43953;45.508;-122.806;2023-02-13T00:25:50;101295.41;;;11.49;54.06
50852;BME280;43953;45.508;-122.806;2023-02-13T00:26:22;101287.31;;;11.49;54.25
50852;BME280;43953;45.508;-122.806;2023-02-13T00:26:54;101298.91;;;11.49;54.07
50852;BME280;43953;45.508;-122.806;2023-02-13T00:27:25;101288.13;;;11.49;53.87
50852;BME280;43953;45.508;-122.806;2023-02-13T00:27:57;101292.69;;;11.49;53.94
50852;BME280;43953;45.508;-122.806;2023-02-13T00:28:29;101292.47;;;11.50;53.92
50852;BME280;43953;45.508;-122.806;2023-02-13T00:29:00;101286.25;;;11.50;53.85
50852;BME280;43953;45.508;-122.806;2023-02-13T00:29:32;101291.66;;;11.50;54.06
50852;BME280;43953;45.508;-122.806;2023-02-13T00:30:04;101292.69;;;11.49;53.80
50852;BME280;43953;45.508;-122.806;2023-02-13T00:30:36;101282.97;;;11.48;53.85
50852;BME280;43953;45.508;-122.806;2023-02-13T00:31:10;101289.56;;;11.45;54.25
50852;BME280;43953;45.508;-122.806;2023-02-13T00:31:42;101288.09;;;11.43;54.11
50852;BME280;43953;45.508;-122.806;2023-02-13T00:32:14;101286.44;;;11.42;54.12
50852;BME280;43953;45.508;-122.806;2023-02-13T00:32:46;101281.44;;;11.38;54.23
50852;BME280;43953;45.508;-122.806;2023-02-13T00:33:17;101278.75;;;11.38;54.10
50852;BME280;43953;45.508;-122.806;2023-02-13T00:33:49;101281.44;;;11.38;54.09
50852;BME280;43953;45.508;-122.806;2023-02-13T00:34:21;101288.50;;;11.39;54.00
50852;BME280;43953;45.508;-122.806;2023-02-13T00:34:53;101287.69;;;11.39;54.11
50852;BME280;43953;45.508;-122.806;2023-02-13T00:35:25;101283.94;;;11.40;54.03
50852;BME280;43953;45.508;-122.806;2023-02-13T00:36:08;101292.69;;;11.42;54.11
50852;BME280;43953;45.508;-122.806;2023-02-13T00:36:40;101293.50;;;11.43;54.32
50852;BME280;43953;45.508;-122.806;2023-02-13T00:37:12;101289.75;;;11.44;54.35
50852;BME280;43953;45.508;-122.806;2023-02-13T00:37:43;101294.97;;;11.45;54.10
50852;BME280;43953;45.508;-122.806;2023-02-13T00:38:15;101286.66;;;11.47;53.99
50852;BME280;43953;45.508;-122.806;2023-02-13T00:38:47;101284.59;;;11.49;54.30
50852;BME280;43953;45.508;-122.806;2023-02-13T00:39:19;101289.78;;;11.50;53.71
50852;BME280;43953;45.508;-122.806;2023-02-13T00:39:51;101287.09;;;11.50;53.86
50852;BME280;43953;45.508;-122.806;2023-02-13T00:40:23;101287.72;;;11.52;53.99
50852;BME280;43953;45.508;-122.806;2023-02-13T00:40:55;101288.56;;;11.53;53.91
50852;BME280;43953;45.508;-122.806;2023-02-13T00:41:27;101291.06;;;11.54;54.04
50852;BME280;43953;45.508;-122.806;2023-02-13T00:41:58;101286.50;;;11.55;53.78
50852;BME280;43953;45.508;-122.806;2023-02-13T00:42:30;101285.44;;;11.56;53.95
50852;BME280;43953;45.508;-122.806;2023-02-13T00:43:02;101281.09;;;11.55;53.72
50852;BME280;43953;45.508;-122.806;2023-02-13T00:43:34;101287.72;;;11.52;53.62
50852;BME280;43953;45.508;-122.806;2023-02-13T00:44:07;101282.75;;;11.49;53.43
50852;BME280;43953;45.508;-122.806;2023-02-13T00:44:39;101280.25;;;11.48;53.55
50852;BME280;43953;45.508;-122.806;2023-02-13T00:45:11;101287.91;;;11.44;53.60
50852;BME280;43953;45.508;-122.806;2023-02-13T00:45:43;101282.72;;;11.43;53.39
50852;BME280;43953;45.508;-122.806;2023-02-13T00:46:15;101282.28;;;11.39;53.67
50852;BME280;43953;45.508;-122.806;2023-02-13T00:46:47;101284.13;;;11.38;53.74
50852;BME280;43953;45.508;-122.806;2023-02-13T00:47:19;101278.13;;;11.36;53.73
50852;BME280;43953;45.508;-122.806;2023-02-13T00:47:51;101281.84;;;11.35;53.54
50852;BME280;43953;45.508;-122.806;2023-02-13T00:48:24;101279.34;;;11.34;53.48
50852;BME280;43953;45.508;-122.806;2023-02-13T00:48:56;101277.69;;;11.33;53.94
50852;BME280;43953;45.508;-122.806;2023-02-13T00:49:27;101276.03;;;11.32;53.98
50852;BME280;43953;45.508;-122.806;2023-02-13T00:49:59;101275.19;;;11.31;53.61
50852;BME280;43953;45.508;-122.806;2023-02-13T00:50:31;101273.53;;;11.30;53.98
50852;BME280;43953;45.508;-122.806;2023-02-13T00:51:03;101272.72;;;11.30;53.55
50852;BME280;43953;45.508;-122.806;2023-02-13T00:51:35;101270.19;;;11.28;53.71
50852;BME280;43953;45.508;-122.806;2023-02-13T00:52:06;101264.81;;;11.28;53.73
50852;BME280;43953;45.508;-122.806;2023-02-13T00:52:38;101262.13;;;11.28;54.03
50852;BME280;43953;45.508;-122.806;2023-02-13T00:53:10;101267.31;;;11.30;53.74
50852;BME280;43953;45.508;-122.806;2023-02-13T00:53:42;101265.44;;;11.30;53.72
50852;BME280;43953;45.508;-122.806;2023-02-13T00:54:13;101269.81;;;11.31;53.76
50852;BME280;43953;45.508;-122.806;2023-02-13T00:54:45;101263.59;;;11.31;53.96
50852;BME280;43953;45.508;-122.806;2023-02-13T00:55:17;101266.47;;;11.29;53.88
50852;BME280;43953;45.508;-122.806;2023-02-13T00:55:49;101268.56;;;11.27;54.11
50852;BME280;43953;45.508;-122.806;2023-02-13T00:56:21;101268.56;;;11.27;53.97
50852;BME280;43953;45.508;-122.806;2023-02-13T00:56:53;101267.69;;;11.27;54.17
50852;BME280;43953;45.508;-122.806;2023-02-13T00:57:24;101267.69;;;11.27;53.86
50852;BME280;43953;45.508;-122.806;2023-02-13T00:57:56;101261.47;;;11.26;53.82
50852;BME280;43953;45.508;-122.806;2023-02-13T00:58:28;101266.03;;;11.26;54.02
50852;BME280;43953;45.508;-122.806;2023-02-13T00:58:59;101262.53;;;11.25;53.83
50852;BME280;43953;45.508;-122.806;2023-02-13T00:59:31;101261.69;;;11.25;53.55
50852;BME280;43953;45.508;-122.806;2023-02-13T01:00:03;101259.81;;;11.25;53.89
50852;BME280;43953;45.508;-122.806;2023-02-13T01:00:35;101255.47;;;11.24;53.65
50852;BME280;43953;45.508;-122.806;2023-02-13T01:01:07;101256.47;;;11.23;53.93
50852;BME280;43953;45.508;-122.806;2023-02-13T01:01:39;101254.84;;;11.22;54.11
50852;BME280;43953;45.508;-122.806;2023-02-13T01:02:10;101249.44;;;11.22;53.83
50852;BME280;43953;45.508;-122.806;2023-02-13T01:02:42;101253.19;;;11.21;54.11
50852;BME280;43953;45.508;-122.806;2023-02-13T01:03:15;101250.25;;;11.23;53.88
50852;BME280;43953;45.508;-122.806;2023-02-13T01:03:47;101244.06;;;11.22;54.00
50852;BME280;43953;45.508;-122.806;2023-02-13T01:04:19;101251.09;;;11.23;54.16
50852;BME280;43953;45.508;-122.806;2023-02-13T01:04:50;101245.50;;;11.25;54.37
50852;BME280;43953;45.508;-122.806;2023-02-13T01:05:22;101242.81;;;11.25;53.88
50852;BME280;43953;45.508;-122.806;2023-02-13T01:05:55;101238.25;;;11.25;54.37
50852;BME280;43953;45.508;-122.806;2023-02-13T01:06:28;101242.00;;;11.24;54.24
50852;BME280;43953;45.508;-122.806;2023-02-13T01:07:00;101239.09;;;11.26;53.92
50852;BME280;43953;45.508;-122.806;2023-02-13T01:07:31;101237.44;;;11.25;53.93
50852;BME280;43953;45.508;-122.806;2023-02-13T01:08:04;101239.31;;;11.24;53.99
50852;BME280;43953;45.508;-122.806;2023-02-13T01:08:38;101236.59;;;11.24;54.24
50852;BME280;43953;45.508;-122.806;2023-02-13T01:09:10;101239.47;;;11.23;54.07
50852;BME280;43953;45.508;-122.806;2023-02-13T01:09:42;101229.75;;;11.22;53.95
50852;BME280;43953;45.508;-122.806;2023-02-13T01:10:14;101233.44;;;11.21;53.99
50852;BME280;43953;45.508;-122.806;2023-02-13T01:10:47;101229.94;;;11.20;54.21
50852;BME280;43953;45.508;-122.806;2023-02-13T01:11:19;101230.97;;;11.19;54.03
50852;BME280;43953;45.508;-122.806;2023-02-13T01:11:50;101232.00;;;11.18;54.13
50852;BME280;43953;45.508;-122.806;2023-02-13T01:12:22;101224.13;;;11.16;54.26
50852;BME280;43953;45.508;-122.806;2023-02-13T01:12:54;101232.38;;;11.15;54.36
50852;BME280;43953;45.508;-122.806;2023-02-13T01:13:26;101229.09;;;11.13;54.53
50852;BME280;43953;45.508;-122.806;2023-02-13T01:13:57;101223.06;;;11.11;54.23
50852;BME280;43953;45.508;-122.806;2023-02-13T01:14:29;101221.59;;;11.08;54.67
50852;BME280;43953;45.508;-122.806;2023-02-13T01:15:02;101219.09;;;11.07;54.48
50852;BME280;43953;45.508;-122.806;2023-02-13T01:15:34;101219.09;;;11.07;54.38
50852;BME280;43953;45.508;-122.806;2023-02-13T01:16:07;101223.44;;;11.08;54.78
50852;BME280;43953;45.508;-122.806;2023-02-13T01:16:38;101221.59;;;11.08;54.44
50852;BME280;43953;45.508;-122.806;2023-02-13T01:17:10;101220.97;;;11.06;54.52
50852;BME280;43953;45.508;-122.806;2023-02-13T01:17:42;101228.84;;;11.08;54.38
50852;BME280;43953;45.508;-122.806;2023-02-13T01:18:16;101215.75;;;11.05;54.51
50852;BME280;43953;45.508;-122.806;2023-02-13T01:18:48;101221.97;;;11.05;54.46
50852;BME280;43953;45.508;-122.806;2023-02-13T01:19:20;101221.16;;;11.05;54.57
50852;BME280;43953;45.508;-122.806;2023-02-13T01:19:51;101215.97;;;11.03;54.58
50852;BME280;43953;45.508;-122.806;2023-02-13T01:20:24;101221.38;;;11.03;54.68
50852;BME280;43953;45.508;-122.806;2023-02-13T01:21:03;101218.84;;;11.02;54.83
50852;BME280;43953;45.508;-122.806;2023-02-13T01:21:35;101212.81;;;11.00;54.54
50852;BME280;43953;45.508;-122.806;2023-02-13T01:22:07;101216.56;;;10.99;54.60
50852;BME280;43953;45.508;-122.806;2023-02-13T01:22:39;101198.94;;;10.96;54.83
50852;BME280;43953;45.508;-122.806;2023-02-13T01:23:14;101209.06;;;10.94;54.75
50852;BME280;43953;45.508;-122.806;2023-02-13T01:23:46;101208.25;;;10.93;54.98
50852;BME280;43953;45.508;-122.806;2023-02-13T01:24:18;101211.97;;;10.92;55.08
50852;BME280;43953;45.508;-122.806;2023-02-13T01:24:50;101205.53;;;10.93;55.06
50852;BME280;43953;45.508;-122.806;2023-02-13T01:25:22;101211.16;;;10.92;55.03
50852;BME280;43953;45.508;-122.806;2023-02-13T01:25:53;101205.94;;;10.90;55.02
50852;BME280;43953;45.508;-122.806;2023-02-13T01:26:25;101203.25;;;10.90;55.42
50852;BME280;43953;45.508;-122.806;2023-02-13T01:26:57;101208.63;;;10.90;55.19
50852;BME280;43953;45.508;-122.806;2023-02-13T01:27:29;101209.47;;;10.91;55.01
50852;BME280;43953;45.508;-122.806;2023-02-13T01:28:01;101214.03;;;10.90;55.30
50852;BME280;43953;45.508;-122.806;2023-02-13T01:28:33;101210.72;;;10.88;55.16
50852;BME280;43953;45.508;-122.806;2023-02-13T01:29:05;101212.38;;;10.89;55.22
50852;BME280;43953;45.508;-122.806;2023-02-13T01:29:37;101209.69;;;10.89;55.20
50852;BME280;43953;45.508;-122.806;2023-02-13T01:30:11;101200.97;;;10.87;55.23
50852;BME280;43953;45.508;-122.806;2023-02-13T01:30:44;101209.88;;;10.88;55.01
50852;BME280;43953;45.508;-122.806;2023-02-13T01:31:15;101209.03;;;10.87;55.40
50852;BME280;43953;45.508;-122.806;2023-02-13T01:31:47;101207.00;;;10.89;55.23
50852;BME280;43953;45.508;-122.806;2023-02-13T01:32:19;101201.59;;;10.89;55.06
50852;BME280;43953;45.508;-122.806;2023-02-13T01:32:50;101204.69;;;10.86;55.47
50852;BME280;43953;45.508;-122.806;2023-02-13T01:33:24;101200.31;;;10.85;55.46
50852;BME280;43953;45.508;-122.806;2023-02-13T01:33:56;101203.41;;;10.82;55.17
50852;BME280;43953;45.508;-122.806;2023-02-13T01:34:28;101196.19;;;10.83;55.22
50852;BME280;43953;45.508;-122.806;2023-02-13T01:35:00;101207.13;;;10.81;55.61
50852;BME280;43953;45.508;-122.806;2023-02-13T01:35:32;101198.22;;;10.81;55.35
50852;BME280;43953;45.508;-122.806;2023-02-13T01:36:08;101195.94;;;10.78;55.46
50852;BME280;43953;45.508;-122.806;2023-02-13T01:36:40;101196.13;;;10.76;55.48
50852;BME280;43953;45.508;-122.806;2023-02-13T01:37:13;101186.56;;;10.74;55.80
50852;BME280;43953;45.508;-122.806;2023-02-13T01:37:44;101179.75;;;10.71;56.00
50852;BME280;43953;45.508;-122.806;2023-02-13T01:38:16;101196.53;;;10.73;55.68
50852;BME280;43953;45.508;-122.806;2023-02-13T01:38:52;101180.56;;;10.72;55.88
50852;BME280;43953;45.508;-122.806;2023-02-13T01:39:24;101180.75;;;10.70;55.38
50852;BME280;43953;45.508;-122.806;2023-02-13T01:39:56;101182.84;;;10.68;55.78
50852;BME280;43953;45.508;-122.806;2023-02-13T01:40:28;101189.22;;;10.67;56.05
50852;BME280;43953;45.508;-122.806;2023-02-13T01:41:00;101186.53;;;10.67;55.82
50852;BME280;43953;45.508;-122.806;2023-02-13T01:41:31;101192.97;;;10.66;56.03
50852;BME280;43953;45.508;-122.806;2023-02-13T01:42:04;101183.22;;;10.65;56.07
50852;BME280;43953;45.508;-122.806;2023-02-13T01:42:36;101195.66;;;10.66;55.83
50852;BME280;43953;45.508;-122.806;2023-02-13T01:43:09;101184.25;;;10.64;55.87
50852;BME280;43953;45.508;-122.806;2023-02-13T01:43:48;101185.06;;;10.64;56.10
50852;BME280;43953;45.508;-122.806;2023-02-13T01:44:49;101183.41;;;10.63;55.67
50852;BME280;43953;45.508;-122.806;2023-02-13T01:45:27;101186.31;;;10.62;56.11
50852;BME280;43953;45.508;-122.806;2023-02-13T01:46:00;101188.16;;;10.61;56.03
50852;BME280;43953;45.508;-122.806;2023-02-13T01:46:38;101189.00;;;10.62;55.94
50852;BME280;43953;45.508;-122.806;2023-02-13T01:47:15;101187.97;;;10.63;56.19
50852;BME280;43953;45.508;-122.806;2023-02-13T01:48:22;101184.63;;;10.61;55.81
50852;BME280;43953;45.508;-122.806;2023-02-13T01:49:01;101184.00;;;10.59;55.67
50852;BME280;43953;45.508;-122.806;2023-02-13T01:49:33;101186.06;;;10.57;56.05
50852;BME280;43953;45.508;-122.806;2023-02-13T01:51:32;101184.19;;;10.51;56.25
50852;BME280;43953;45.508;-122.806;2023-02-13T01:52:04;101181.47;;;10.51;56.11
50852;BME280;43953;45.508;-122.806;2023-02-13T01:52:39;101176.09;;;10.51;56.16
50852;BME280;43953;45.508;-122.806;2023-02-13T01:53:12;101177.97;;;10.50;56.15
50852;BME280;43953;45.508;-122.806;2023-02-13T01:54:09;101171.94;;;10.48;56.08
50852;BME280;43953;45.508;-122.806;2023-02-13T01:54:43;101174.19;;;10.44;56.29
50852;BME280;43953;45.508;-122.806;2023-02-13T01:55:16;101175.19;;;10.43;56.40
50852;BME280;43953;45.508;-122.806;2023-02-13T01:55:55;101171.50;;;10.44;56.50
50852;BME280;43953;45.508;-122.806;2023-02-13T01:56:43;101179.75;;;10.43;56.56
50852;BME280;43953;45.508;-122.806;2023-02-13T01:57:19;101175.59;;;10.40;56.44
50852;BME280;43953;45.508;-122.806;2023-02-13T01:58:06;101177.69;;;10.38;56.36
50852;BME280;43953;45.508;-122.806;2023-02-13T01:58:40;101174.34;;;10.36;56.64
50852;BME280;43953;45.508;-122.806;2023-02-13T01:59:22;101172.88;;;10.34;56.94
50852;BME280;43953;45.508;-122.806;2023-02-13T02:00:06;101188.19;;;10.33;56.69
50852;BME280;43953;45.508;-122.806;2023-02-13T02:00:39;101185.50;;;10.33;56.92
50852;BME280;43953;45.508;-122.806;2023-02-13T02:01:11;101181.97;;;10.33;56.90
50852;BME280;43953;45.508;-122.806;2023-02-13T02:01:44;101178.44;;;10.32;57.02
50852;BME280;43953;45.508;-122.806;2023-02-13T02:02:16;101181.13;;;10.32;56.99
50852;BME280;43953;45.508;-122.806;2023-02-13T02:03:01;101187.38;;;10.33;57.10
50852;BME280;43953;45.508;-122.806;2023-02-13T02:03:41;101182.81;;;10.33;56.92
50852;BME280;43953;45.508;-122.806;2023-02-13T02:04:21;101179.28;;;10.33;56.71
50852;BME280;43953;45.508;-122.806;2023-02-13T02:04:54;101184.66;;;10.33;56.78
50852;BME280;43953;45.508;-122.806;2023-02-13T02:05:27;101181.13;;;10.32;56.87
50852;BME280;43953;45.508;-122.806;2023-02-13T02:06:01;101177.59;;;10.32;56.78
50852;BME280;43953;45.508;-122.806;2023-02-13T02:06:38;101178.44;;;10.32;57.08
50852;BME280;43953;45.508;-122.806;2023-02-13T02:07:23;101183.00;;;10.32;57.10
50852;BME280;43953;45.508;-122.806;2023-02-13T02:07:57;101184.22;;;10.29;57.06
50852;BME280;43953;45.508;-122.806;2023-02-13T02:08:31;101183.19;;;10.30;56.90
50852;BME280;43953;45.508;-122.806;2023-02-13T02:09:18;101184.22;;;10.29;57.19
50852;BME280;43953;45.508;-122.806;2023-02-13T02:09:54;101186.06;;;10.29;57.16
50852;BME280;43953;45.508;-122.806;2023-02-13T02:10:27;101185.25;;;10.28;56.81
50852;BME280;43953;45.508;-122.806;2023-02-13T02:11:04;101181.88;;;10.26;56.87
50852;BME280;43953;45.508;-122.806;2023-02-13T02:13:31;101178.31;;;10.19;56.98
50852;BME280;43953;45.508;-122.806;2023-02-13T02:14:02;101176.66;;;10.18;57.35
50852;BME280;43953;45.508;-122.806;2023-02-13T02:14:34;101175.63;;;10.19;57.06
50852;BME280;43953;45.508;-122.806;2023-02-13T02:15:07;101175.44;;;10.20;57.00
50852;BME280;43953;45.508;-122.806;2023-02-13T02:15:40;101177.91;;;10.22;57.02
50852;BME280;43953;45.508;-122.806;2023-02-13T02:16:13;101170.69;;;10.22;57.24
50852;BME280;43953;45.508;-122.806;2023-02-13T02:16:45;101178.56;;;10.24;56.93
50852;BME280;43953;45.508;-122.806;2023-02-13T02:17:16;101179.56;;;10.23;56.91
50852;BME280;43953;45.508;-122.806;2023-02-13T02:17:48;101177.91;;;10.22;57.18
50852;BME280;43953;45.508;-122.806;2023-02-13T02:18:23;101180.63;;;10.22;57.05
50852;BME280;43953;45.508;-122.806;2023-02-13T02:18:55;101181.84;;;10.19;56.77
50852;BME280;43953;45.508;-122.806;2023-02-13T02:20:38;101177.66;;;10.17;57.23
50852;BME280;43953;45.508;-122.806;2023-02-13T02:22:25;101185.69;;;10.10;57.27
50852;BME280;43953;45.508;-122.806;2023-02-13T02:23:25;101181.53;;;10.08;57.46
50852;BME280;43953;45.508;-122.806;2023-02-13T02:33:17;101174.69;;;9.84;57.95
50852;BME280;43953;45.508;-122.806;2023-02-13T02:36:59;101171.31;;;9.75;58.21
50852;BME280;43953;45.508;-122.806;2023-02-13T02:37:35;101175.84;;;9.74;58.42
50852;BME280;43953;45.508;-122.806;2023-02-13T02:40:52;101166.75;;;9.75;58.43
50852;BME280;43953;45.508;-122.806;2023-02-13T02:41:33;101176.69;;;9.75;58.39
50852;BME280;43953;45.508;-122.806;2023-02-13T02:43:55;101182.25;;;9.73;58.70
50852;BME280;43953;45.508;-122.806;2023-02-13T02:44:42;101173.34;;;9.73;58.57
50852;BME280;43953;45.508;-122.806;2023-02-13T02:46:32;101175.59;;;9.69;58.41
50852;BME280;43953;45.508;-122.806;2023-02-13T02:48:30;101180.25;;;9.61;58.90
50852;BME280;43953;45.508;-122.806;2023-02-13T02:49:21;101178.78;;;9.58;59.02
50852;BME280;43953;45.508;-122.806;2023-02-13T02:51:39;101176.03;;;9.51;59.18
50852;BME280;43953;45.508;-122.806;2023-02-13T02:52:18;101167.97;;;9.51;59.24
50852;BME280;43953;45.508;-122.806;2023-02-13T02:53:45;101170.88;;;9.50;59.22
50852;BME280;43953;45.508;-122.806;2023-02-13T02:54:38;101168.16;;;9.50;59.05
50852;BME280;43953;45.508;-122.806;2023-02-13T02:55:51;101177.25;;;9.49;59.31
50852;BME280;43953;45.508;-122.806;2023-02-13T02:56:46;101175.19;;;9.51;59.16
50852;BME280;43953;45.508;-122.806;2023-02-13T02:57:26;101166.97;;;9.52;59.00
50852;BME280;43953;45.508;-122.806;2023-02-13T02:58:27;101168.78;;;9.52;59.26
50852;BME280;43953;45.508;-122.806;2023-02-13T02:59:21;101166.69;;;9.47;58.79
50852;BME280;43953;45.508;-122.806;2023-02-13T03:00:16;101179.47;;;9.45;59.45
50852;BME280;43953;45.508;-122.806;2023-02-13T03:01:17;101173.44;;;9.43;59.21
50852;BME280;43953;45.508;-122.806;2023-02-13T03:02:11;101179.22;;;9.40;59.36
50852;BME280;43953;45.508;-122.806;2023-02-13T03:03:16;101179.59;;;9.37;59.49
50852;BME280;43953;45.508;-122.806;2023-02-13T03:04:15;101176.91;;;9.37;59.60
50852;BME280;43953;45.508;-122.806;2023-02-13T03:05:16;101171.53;;;9.37;59.83
50852;BME280;43953;45.508;-122.806;2023-02-13T03:06:45;101165.31;;;9.37;59.93
50852;BME280;43953;45.508;-122.806;2023-02-13T03:07:19;101161.16;;;9.34;59.91
50852;BME280;43953;45.508;-122.806;2023-02-13T03:07:50;101163.03;;;9.33;59.69
50852;BME280;43953;45.508;-122.806;2023-02-13T03:08:22;101164.88;;;9.33;59.77
50852;BME280;43953;45.508;-122.806;2023-02-13T03:09:47;101159.50;;;9.33;59.93
50852;BME280;43953;45.508;-122.806;2023-02-13T03:10:38;101155.16;;;9.32;59.84
50852;BME280;43953;45.508;-122.806;2023-02-13T03:11:28;101160.72;;;9.30;59.93
50852;BME280;43953;45.508;-122.806;2023-02-13T03:12:21;101155.53;;;9.29;60.16
50852;BME280;43953;45.508;-122.806;2023-02-13T03:13:40;101155.53;;;9.29;60.15
50852;BME280;43953;45.508;-122.806;2023-02-13T03:14:15;101155.53;;;9.29;60.04
50852;BME280;43953;45.508;-122.806;2023-02-13T03:14:49;101154.50;;;9.30;59.95
50852;BME280;43953;45.508;-122.806;2023-02-13T03:15:22;101149.13;;;9.30;59.81
50852;BME280;43953;45.508;-122.806;2023-02-13T03:15:58;101148.31;;;9.29;60.11
50852;BME280;43953;45.508;-122.806;2023-02-13T03:16:48;101154.69;;;9.28;60.03
50852;BME280;43953;45.508;-122.806;2023-02-13T03:17:39;101152.19;;;9.27;60.24
50852;BME280;43953;45.508;-122.806;2023-02-13T03:18:30;101151.38;;;9.26;60.21
50852;BME280;43953;45.508;-122.806;2023-02-13T03:20:59;101162.22;;;9.18;60.42
50852;BME280;43953;45.508;-122.806;2023-02-13T03:22:07;101176.69;;;9.17;60.80
50852;BME280;43953;45.508;-122.806;2023-02-13T03:23:45;101175.00;;;9.16;60.78
50852;BME280;43953;45.508;-122.806;2023-02-13T03:25:35;101178.34;;;9.18;60.91
50852;BME280;43953;45.508;-122.806;2023-02-13T03:31:20;101170.75;;;9.22;60.58
50852;BME280;43953;45.508;-122.806;2023-02-13T03:32:28;101171.56;;;9.22;60.75
50852;BME280;43953;45.508;-122.806;2023-02-13T03:33:35;101172.22;;;9.24;60.66
50852;BME280;43953;45.508;-122.806;2023-02-13T03:34:14;101174.72;;;9.26;60.49
50852;BME280;43953;45.508;-122.806;2023-02-13T03:34:54;101166.66;;;9.26;60.55
50852;BME280;43953;45.508;-122.806;2023-02-13T03:37:06;101163.88;;;9.19;60.73
50852;BME280;43953;45.508;-122.806;2023-02-13T03:38:04;101162.41;;;9.17;60.67
50852;BME280;43953;45.508;-122.806;2023-02-13T03:39:46;101154.34;;;9.17;60.91
50852;BME280;43953;45.508;-122.806;2023-02-13T03:40:26;101152.69;;;9.16;60.70
50852;BME280;43953;45.508;-122.806;2023-02-13T03:41:04;101164.09;;;9.18;60.79